Time;durP1;ratioP1;P1;durP2;ratioP2;P2;SDS_P1;SDS_P2;PMS_P1;PMS_P2;Temp;Humidity;BMP_temperature;BMP_pressure;BME280_temperature;BME280_humidity;BME280_pressure;Samples;Min_cycle;Max_cycle;Signal;HPM_P1;HPM_P2
2022/03/12 00:01:24;;;;;;;;;;;;;;;7.61;19.94;100661.63;4498464;31;33943;-81
2022/03/12 00:03:53;;;;;;;;;;;;;;;7.60;20.08;100653.84;4498936;31;34522;-81
2022/03/12 00:06:22;;;;;;;;;;;;;;;7.74;19.71;100655.38;4498963;31;34227;-81
2022/03/12 00:08:51;;;;;;;;;;;;;;;7.55;20.21;100656.19;4498749;31;33633;-82
2022/03/12 00:11:28;;;;;;;;;;;;;;;7.39;20.56;100654.56;4498360;31;33740;-81
2022/03/12 00:13:57;;;;;;;;;;;;;;;7.82;20.20;100655.75;4498791;31;35296;-80
2022/03/12 00:16:25;;;;;;;;;;;;;;;5.34;20.20;100649.66;4498865;31;34523;-81
2022/03/12 00:18:55;;;;;;;;;;;;;;;5.04;21.39;100660.72;4498934;31;34016;-81
2022/03/12 00:21:27;;;;;;;;;;;;;;;6.09;20.53;100655.53;4498285;31;34019;-80
2022/03/12 00:23:55;;;;;;;;;;;;;;;6.68;20.41;100655.25;4497337;31;33987;-81
2022/03/12 00:26:23;;;;;;;;;;;;;;;7.10;20.82;100654.81;4498754;31;34972;-81
2022/03/12 00:28:53;;;;;;;;;;;;;;;7.32;20.88;100653.38;4497336;31;34320;-81
2022/03/12 00:31:20;;;;;;;;;;;;;;;7.33;20.63;100656.84;4498728;31;34106;-81
2022/03/12 00:33:47;;;;;;;;;;;;;;;7.50;20.37;100649.91;4499112;31;34382;-81
2022/03/12 00:36:15;;;;;;;;;;;;;;;6.95;20.81;100654.91;4498680;31;34372;-81
2022/03/12 00:38:43;;;;;;;;;;;;;;;6.79;20.81;100648.09;4498676;31;34527;-82
2022/03/12 00:41:11;;;;;;;;;;;;;;;6.76;20.18;100648.81;4498369;31;35046;-82
2022/03/12 00:43:38;;;;;;;;;;;;;;;6.90;21.33;100646.06;4498247;31;34278;-82
2022/03/12 00:46:05;;;;;;;;;;;;;;;6.73;21.51;100643.50;4498326;31;35275;-82
2022/03/12 00:48:34;;;;;;;;;;;;;;;6.90;21.30;100653.81;4498464;31;33577;-81
2022/03/12 00:51:08;;;;;;;;;;;;;;;7.12;21.25;100659.22;4497899;31;33782;-81
2022/03/12 00:53:37;;;;;;;;;;;;;;;7.36;20.85;100644.09;4498712;31;33895;-81
2022/03/12 00:56:05;;;;;;;;;;;;;;;6.99;20.71;100641.38;4499224;31;35252;-80
2022/03/12 00:58:32;;;;;;;;;;;;;;;5.51;21.14;100647.13;4500451;31;34463;-81
2022/03/12 01:01:00;;;;;;;;;;;;;;;6.59;20.54;100659.91;4500171;31;34259;-80
2022/03/12 01:03:27;;;;;;;;;;;;;;;7.04;20.71;100650.22;4500111;31;35400;-81
2022/03/12 01:05:55;;;;;;;;;;;;;;;7.36;20.31;100644.09;4500319;31;34489;-81
2022/03/12 01:08:25;;;;;;;;;;;;;;;6.32;21.11;100649.03;4500117;31;33691;-82
2022/03/12 01:10:53;;;;;;;;;;;;;;;6.83;21.05;100652.59;4500392;31;34270;-82
2022/03/12 01:13:21;;;;;;;;;;;;;;;7.47;20.61;100644.63;4486218;31;34025;-81
2022/03/12 01:15:49;;;;;;;;;;;;;;;7.54;20.41;100641.53;4500263;31;34576;-81
2022/03/12 01:18:18;;;;;;;;;;;;;;;7.32;20.61;100640.47;4500470;31;34381;-81
2022/03/12 01:20:45;;;;;;;;;;;;;;;7.34;20.81;100634.50;4485873;31;35009;-82
2022/03/12 01:23:13;;;;;;;;;;;;;;;7.41;20.78;100642.59;4500090;31;34309;-81
2022/03/12 01:25:41;;;;;;;;;;;;;;;7.21;20.97;100636.47;4497204;31;34128;-80
2022/03/12 01:28:09;;;;;;;;;;;;;;;7.19;20.84;100640.66;4485613;31;33595;-82
2022/03/12 01:30:36;;;;;;;;;;;;;;;6.98;20.99;100639.59;4486039;31;34150;-81
2022/03/12 01:33:04;;;;;;;;;;;;;;;7.29;20.88;100644.59;4499844;31;34449;-81
2022/03/12 01:35:31;;;;;;;;;;;;;;;6.67;20.31;100645.78;4485989;31;35316;-82
2022/03/12 01:37:59;;;;;;;;;;;;;;;6.51;21.08;100656.06;4499831;31;33501;-81
2022/03/12 01:40:27;;;;;;;;;;;;;;;6.57;20.78;100659.84;4500052;31;34473;-82
2022/03/12 01:42:54;;;;;;;;;;;;;;;6.95;20.54;100658.38;4499798;31;34391;-81
2022/03/12 01:45:27;;;;;;;;;;;;;;;6.86;20.11;100654.41;4500080;31;35353;-81
2022/03/12 01:47:55;;;;;;;;;;;;;;;6.71;20.23;100662.28;4499656;31;33501;-82
2022/03/12 01:50:27;;;;;;;;;;;;;;;7.01;20.26;100661.28;4500092;31;34691;-81
2022/03/12 01:52:58;;;;;;;;;;;;;;;6.66;20.88;100667.16;4499912;31;34047;-81
2022/03/12 01:55:30;;;;;;;;;;;;;;;6.77;20.91;100665.16;4499658;31;35260;-81
2022/03/12 01:57:58;;;;;;;;;;;;;;;6.96;21.05;100656.69;4500138;31;34390;-82
2022/03/12 02:00:26;;;;;;;;;;;;;;;6.98;20.63;100671.44;4499928;31;35136;-82
2022/03/12 02:02:54;;;;;;;;;;;;;;;6.76;21.17;100659.12;4500010;31;34259;-82
2022/03/12 02:05:24;;;;;;;;;;;;;;;6.87;21.01;100656.22;4499238;31;34652;-81
2022/03/12 02:07:51;;;;;;;;;;;;;;;6.99;21.21;100667.16;4499733;31;33176;-80
2022/03/12 02:10:20;;;;;;;;;;;;;;;6.93;20.95;100662.59;4499698;31;35045;-80
2022/03/12 02:12:48;;;;;;;;;;;;;;;6.77;21.53;100660.87;4500276;31;34183;-81
2022/03/12 02:15:18;;;;;;;;;;;;;;;6.43;21.28;100657.34;4499481;31;34267;-81
2022/03/12 02:17:45;;;;;;;;;;;;;;;6.64;21.74;100662.75;4500012;31;33974;-82
2022/03/12 02:20:16;;;;;;;;;;;;;;;6.94;21.28;100653.16;4499752;31;34347;-81
2022/03/12 02:22:45;;;;;;;;;;;;;;;6.44;21.65;100659.12;4499638;31;34419;-82
2022/03/12 02:25:12;;;;;;;;;;;;;;;6.45;21.45;100653.19;4499289;31;35041;-82
2022/03/12 02:27:40;;;;;;;;;;;;;;;6.47;21.97;100659.28;4499367;31;33559;-82
2022/03/12 02:30:08;;;;;;;;;;;;;;;5.90;21.80;100660.44;4499679;31;34213;-82
2022/03/12 02:32:36;;;;;;;;;;;;;;;6.56;21.32;100659.78;4499448;31;34554;-82
2022/03/12 02:35:07;;;;;;;;;;;;;;;6.35;21.02;100662.09;4499095;31;34307;-81
2022/03/12 02:37:34;;;;;;;;;;;;;;;6.27;21.20;100666.84;4498423;31;33496;-82
2022/03/12 02:40:06;;;;;;;;;;;;;;;6.41;20.71;100659.84;4499514;31;34211;-82
2022/03/12 02:42:34;;;;;;;;;;;;;;;5.86;20.37;100662.84;4497702;31;33978;-82
2022/03/12 02:45:07;;;;;;;;;;;;;;;5.28;20.69;100662.12;4499581;31;34646;-82
2022/03/12 02:47:36;;;;;;;;;;;;;;;5.40;20.84;100661.06;4485031;31;33611;-82
2022/03/12 02:50:06;;;;;;;;;;;;;;;5.25;20.85;100668.78;4499509;31;33799;-82
2022/03/12 02:52:40;;;;;;;;;;;;;;;4.79;21.71;100682.38;4499475;31;34532;-82
2022/03/12 02:55:12;;;;;;;;;;;;;;;5.26;21.33;100674.00;4499218;31;35345;-81
2022/03/12 02:57:46;;;;;;;;;;;;;;;4.88;21.55;100672.62;4498297;31;33190;-81
2022/03/12 03:00:15;;;;;;;;;;;;;;;5.27;21.01;100670.66;4498268;31;34224;-81
2022/03/12 03:02:47;;;;;;;;;;;;;;;5.34;20.86;100662.50;4497046;31;34002;-80
2022/03/12 03:08:04;;;;;;;;;;;;;;;4.39;21.97;100681.63;4499107;31;34546;-81
2022/03/12 03:10:34;;;;;;;;;;;;;;;3.96;22.17;100681.53;4485322;31;35442;-81
2022/03/12 03:13:17;;;;;;;;;;;;;;;3.75;22.72;100670.81;4498786;31;33553;-81
2022/03/12 03:15:46;;;;;;;;;;;;;;;4.28;22.24;100670.72;4498261;31;33932;-81
2022/03/12 03:18:15;;;;;;;;;;;;;;;3.57;22.82;100674.75;4499194;31;33371;-82
2022/03/12 03:20:43;;;;;;;;;;;;;;;3.68;22.88;100678.91;4499700;31;34601;-81
2022/03/12 03:23:10;;;;;;;;;;;;;;;3.61;23.05;100687.00;4499050;31;34449;-82
2022/03/12 03:25:38;;;;;;;;;;;;;;;3.68;23.03;100688.28;4499005;31;34320;-82
2022/03/12 03:28:06;;;;;;;;;;;;;;;3.79;23.31;100683.03;4498992;31;34210;-82
2022/03/12 03:30:34;;;;;;;;;;;;;;;3.86;22.61;100682.66;4498679;31;34583;-82
2022/03/12 03:33:27;;;;;;;;;;;;;;;4.51;22.20;100684.06;4499253;31;35364;-82
2022/03/12 03:35:56;;;;;;;;;;;;;;;3.46;23.40;100680.87;4498713;31;34564;-82
2022/03/12 03:38:23;;;;;;;;;;;;;;;3.51;23.27;100684.59;4498950;31;33841;-82
2022/03/12 03:40:50;;;;;;;;;;;;;;;2.71;23.80;100687.00;4498055;31;33730;-82
2022/03/12 03:43:20;;;;;;;;;;;;;;;3.59;23.30;100689.44;4499232;31;34443;-81
2022/03/12 03:45:48;;;;;;;;;;;;;;;4.54;22.30;100689.41;4497447;31;35201;-80
2022/03/12 03:48:18;;;;;;;;;;;;;;;4.61;22.39;100687.28;4497922;31;34395;-82
2022/03/12 03:50:46;;;;;;;;;;;;;;;5.20;21.57;100690.78;4499105;31;35096;-81
2022/03/12 03:53:13;;;;;;;;;;;;;;;5.09;21.28;100690.16;4497672;31;35345;-82
2022/03/12 03:55:42;;;;;;;;;;;;;;;5.19;21.87;100688.97;4498807;31;35397;-81
2022/03/12 03:58:10;;;;;;;;;;;;;;;5.74;21.28;100684.44;4499001;31;33171;-81
2022/03/12 04:00:38;;;;;;;;;;;;;;;5.23;21.08;100686.72;4497981;31;34608;-81
2022/03/12 04:03:05;;;;;;;;;;;;;;;6.01;20.94;100693.72;4498856;31;35134;-81
2022/03/12 04:05:33;;;;;;;;;;;;;;;5.53;21.27;100681.53;4498935;31;35170;-81
2022/03/12 04:08:00;;;;;;;;;;;;;;;6.16;20.78;100682.50;4498695;31;34961;-81
2022/03/12 04:10:28;;;;;;;;;;;;;;;5.08;21.76;100683.25;4498971;31;34185;-81
2022/03/12 04:12:56;;;;;;;;;;;;;;;5.43;21.16;100685.28;4498520;31;34454;-81
2022/03/12 04:15:23;;;;;;;;;;;;;;;5.17;21.71;100686.34;4499183;31;34535;-81
2022/03/12 04:17:51;;;;;;;;;;;;;;;5.09;21.82;100682.44;4499217;31;33741;-82
2022/03/12 04:20:21;;;;;;;;;;;;;;;4.28;22.43;100690.34;4498702;31;34815;-81
2022/03/12 04:22:50;;;;;;;;;;;;;;;4.37;22.20;100691.81;4497597;31;34790;-82
2022/03/12 04:25:20;;;;;;;;;;;;;;;4.07;22.66;100695.06;4498696;31;34953;-81
2022/03/12 04:27:47;;;;;;;;;;;;;;;4.55;22.60;100696.34;4498229;31;33347;-81
2022/03/12 04:30:18;;;;;;;;;;;;;;;5.36;22.03;100684.03;4498549;31;34233;-81
2022/03/12 04:32:46;;;;;;;;;;;;;;;4.93;22.04;100682.34;4492872;31;34137;-81
2022/03/12 04:35:13;;;;;;;;;;;;;;;5.52;22.05;100679.78;4498363;31;34980;-81
2022/03/12 04:37:40;;;;;;;;;;;;;;;4.44;22.58;100687.97;4499103;31;33456;-81
2022/03/12 04:40:12;;;;;;;;;;;;;;;5.29;21.79;100684.47;4498509;31;34256;-81
2022/03/12 04:42:43;;;;;;;;;;;;;;;4.24;22.40;100688.41;4482799;32;33942;-81
2022/03/12 04:45:11;;;;;;;;;;;;;;;4.79;22.66;100695.22;4481468;32;34532;-81
2022/03/12 04:47:41;;;;;;;;;;;;;;;5.47;21.75;100689.81;4482791;32;33233;-81
2022/03/12 04:50:09;;;;;;;;;;;;;;;4.88;22.18;100692.31;4482536;32;33926;-81
2022/03/12 04:52:36;;;;;;;;;;;;;;;5.89;21.98;100692.16;4497340;31;34059;-81
2022/03/12 04:55:07;;;;;;;;;;;;;;;6.08;22.34;100685.56;4498111;31;34567;-82
2022/03/12 04:57:34;;;;;;;;;;;;;;;5.93;22.00;100700.16;4497283;31;33496;-83
2022/03/12 05:00:03;;;;;;;;;;;;;;;6.44;21.96;100697.75;4497952;31;34107;-82
2022/03/12 05:02:32;;;;;;;;;;;;;;;6.58;21.96;100691.66;4498115;31;34377;-81
2022/03/12 05:04:59;;;;;;;;;;;;;;;6.21;21.31;100696.50;4495472;31;34195;-81
2022/03/12 05:07:27;;;;;;;;;;;;;;;5.97;21.59;100699.50;4473289;31;784001;-82
2022/03/12 05:09:55;;;;;;;;;;;;;;;5.05;22.09;100703.62;4496789;31;33891;-80
2022/03/12 05:12:23;;;;;;;;;;;;;;;6.07;21.80;100709.53;4484134;31;34177;-82
2022/03/12 05:14:54;;;;;;;;;;;;;;;6.45;21.71;100697.84;4484008;31;34420;-82
2022/03/12 05:17:28;;;;;;;;;;;;;;;6.11;21.24;100696.84;4497983;31;33650;-80
2022/03/12 05:19:55;;;;;;;;;;;;;;;6.15;22.17;100691.94;4498016;31;33534;-82
2022/03/12 05:22:22;;;;;;;;;;;;;;;5.97;22.17;100698.63;4497790;31;34969;-81
2022/03/12 05:24:49;;;;;;;;;;;;;;;6.13;22.59;100708.09;4498285;31;34993;-81
2022/03/12 05:27:18;;;;;;;;;;;;;;;6.29;22.42;100700.41;4497942;31;34600;-80
2022/03/12 05:29:46;;;;;;;;;;;;;;;6.26;21.73;100701.13;4497738;31;34303;-80
2022/03/12 05:32:13;;;;;;;;;;;;;;;5.90;21.80;100699.06;4497485;31;34413;-80
2022/03/12 05:34:41;;;;;;;;;;;;;;;5.97;21.92;100702.09;4496894;31;34525;-78
2022/03/12 05:37:09;;;;;;;;;;;;;;;5.76;21.67;100701.75;4497697;31;33187;-80
2022/03/12 05:39:37;;;;;;;;;;;;;;;6.16;21.60;100698.84;4493663;31;34270;-80
2022/03/12 05:42:05;;;;;;;;;;;;;;;5.37;21.86;100703.81;4484389;31;34262;-80
2022/03/12 05:44:34;;;;;;;;;;;;;;;5.02;22.47;100706.00;4490967;31;34091;-80
2022/03/12 05:47:02;;;;;;;;;;;;;;;3.85;24.12;100701.37;4500227;31;33935;-79
2022/03/12 05:49:29;;;;;;;;;;;;;;;3.70;24.38;100712.34;4489402;31;35045;-80
2022/03/12 05:51:58;;;;;;;;;;;;;;;3.87;23.95;100706.62;4499405;31;34191;-79
2022/03/12 05:54:25;;;;;;;;;;;;;;;4.01;24.00;100699.78;4488517;31;35080;-79
2022/03/12 05:56:56;;;;;;;;;;;;;;;3.02;25.00;100707.00;4497224;31;33660;-79
2022/03/12 05:59:23;;;;;;;;;;;;;;;3.46;24.83;100701.37;4498395;31;33545;-79
2022/03/12 06:01:50;;;;;;;;;;;;;;;3.47;24.74;100713.41;4500084;31;34484;-79
2022/03/12 06:04:22;;;;;;;;;;;;;;;2.92;25.48;100706.38;4499910;31;34256;-79
2022/03/12 06:06:49;;;;;;;;;;;;;;;2.77;25.75;100705.34;4499860;31;33773;-79
2022/03/12 06:09:17;;;;;;;;;;;;;;;3.10;25.64;100710.94;4499934;31;33977;-79
2022/03/12 06:11:44;;;;;;;;;;;;;;;2.95;25.83;100708.25;4498481;31;34415;-80
2022/03/12 06:14:15;;;;;;;;;;;;;;;3.01;25.62;100710.34;4499543;31;35063;-81
2022/03/12 06:16:48;;;;;;;;;;;;;;;3.24;25.66;100714.44;4498203;31;34255;-80
2022/03/12 06:19:19;;;;;;;;;;;;;;;3.05;25.52;100714.87;4490581;31;34336;-80
2022/03/12 06:21:46;;;;;;;;;;;;;;;3.36;25.42;100711.00;4499777;31;34352;-80
2022/03/12 06:24:14;;;;;;;;;;;;;;;2.67;26.32;100718.28;4487846;31;34550;-80
2022/03/12 06:26:43;;;;;;;;;;;;;;;2.64;26.82;100712.94;4498396;31;33016;-80
2022/03/12 06:29:13;;;;;;;;;;;;;;;3.86;25.31;100717.66;4498053;31;34150;-80
2022/03/12 06:31:41;;;;;;;;;;;;;;;3.72;25.25;100716.78;4489886;31;35209;-80
2022/03/12 06:34:10;;;;;;;;;;;;;;;3.62;25.48;100714.41;4489276;31;35399;-82
2022/03/12 06:36:37;;;;;;;;;;;;;;;3.12;25.53;100720.53;4482604;32;33780;-80
2022/03/12 06:39:05;;;;;;;;;;;;;;;3.71;25.44;100720.12;4483858;32;34314;-80
2022/03/12 06:41:36;;;;;;;;;;;;;;;4.13;24.60;100726.25;4483892;32;34295;-80
2022/03/12 06:44:03;;;;;;;;;;;;;;;3.62;25.27;100729.78;4482773;32;34941;-80
2022/03/12 06:46:31;;;;;;;;;;;;;;;4.35;24.64;100736.16;4483758;32;33312;-80
2022/03/12 06:48:58;;;;;;;;;;;;;;;4.41;24.08;100733.09;4489494;31;34134;-78
2022/03/12 06:51:26;;;;;;;;;;;;;;;3.54;25.42;100731.84;4498881;31;34399;-81
2022/03/12 06:53:53;;;;;;;;;;;;;;;2.72;26.12;100747.66;4490385;31;34186;-81
2022/03/12 06:56:26;;;;;;;;;;;;;;;3.66;25.49;100747.16;4499194;31;33491;-78
2022/03/12 06:58:54;;;;;;;;;;;;;;;3.87;24.80;100745.09;4499345;31;34301;-78
2022/03/12 07:01:21;;;;;;;;;;;;;;;3.37;25.44;100751.25;4498892;31;35099;-78
2022/03/12 07:03:49;;;;;;;;;;;;;;;3.84;25.27;100743.22;4499271;31;34999;-80
2022/03/12 07:06:19;;;;;;;;;;;;;;;3.79;25.38;100747.19;4499665;31;33616;-79
2022/03/12 07:08:46;;;;;;;;;;;;;;;2.99;26.14;100758.91;4499006;31;34974;-79
2022/03/12 07:11:15;;;;;;;;;;;;;;;3.19;26.54;100762.84;4499348;31;35355;-78
2022/03/12 07:13:42;;;;;;;;;;;;;;;3.14;26.38;100761.63;4499461;31;34329;-79
2022/03/12 07:16:09;;;;;;;;;;;;;;;2.97;26.37;100760.50;4499003;31;33340;-79
2022/03/12 07:18:38;;;;;;;;;;;;;;;2.65;26.91;100758.25;4499422;31;34467;-79
2022/03/12 07:21:06;;;;;;;;;;;;;;;1.80;27.92;100773.50;4499379;31;34369;-79
2022/03/12 07:23:33;;;;;;;;;;;;;;;1.84;27.95;100766.16;4499371;31;34674;-79
2022/03/12 07:26:00;;;;;;;;;;;;;;;3.01;27.07;100756.47;4498120;31;33270;-79
2022/03/12 07:28:31;;;;;;;;;;;;;;;3.31;26.30;100755.97;4497765;31;34185;-80
2022/03/12 07:30:59;;;;;;;;;;;;;;;3.25;26.52;100758.09;4497181;31;33877;-80
2022/03/12 07:33:28;;;;;;;;;;;;;;;2.69;26.67;100762.84;4491428;31;34355;-80
2022/03/12 07:35:55;;;;;;;;;;;;;;;2.87;27.06;100758.06;4490497;31;34073;-80
2022/03/12 07:38:22;;;;;;;;;;;;;;;2.95;26.64;100756.03;4497738;31;33501;-81
2022/03/12 07:40:50;;;;;;;;;;;;;;;3.53;26.30;100752.28;4498558;31;35316;-79
2022/03/12 07:43:17;;;;;;;;;;;;;;;3.36;25.90;100766.53;4484593;31;35247;-78
2022/03/12 07:45:46;;;;;;;;;;;;;;;3.81;26.04;100754.97;4493298;31;34464;-81
2022/03/12 07:48:31;;;;;;;;;;;;;;;3.94;25.29;100738.66;4498542;31;34257;-80
2022/03/12 07:51:06;;;;;;;;;;;;;;;3.52;25.92;100747.91;4498570;31;34434;-80
2022/03/12 07:53:33;;;;;;;;;;;;;;;3.62;25.72;100742.63;4492275;31;34579;-79
2022/03/12 07:56:01;;;;;;;;;;;;;;;4.63;24.90;100733.66;4498155;31;34275;-80
2022/03/12 07:58:28;;;;;;;;;;;;;;;5.24;24.83;100739.91;4495581;31;34281;-81
2022/03/12 08:00:57;;;;;;;;;;;;;;;5.35;23.36;100731.13;4498368;31;34580;-77
2022/03/12 08:03:26;;;;;;;;;;;;;;;4.91;24.30;100740.44;4497334;31;34121;-80
2022/03/12 08:05:53;;;;;;;;;;;;;;;4.71;24.39;100739.25;4498375;31;33648;-79
2022/03/12 08:08:20;;;;;;;;;;;;;;;4.31;23.83;100747.03;4496964;31;34296;-80
2022/03/12 08:13:36;;;;;;;;;;;;;;;4.47;23.94;100748.87;4497408;31;33980;-80
2022/03/12 08:16:04;;;;;;;;;;;;;;;5.61;22.75;100734.34;4498798;31;32311;-80
2022/03/12 08:18:31;;;;;;;;;;;;;;;5.55;22.40;100741.69;4498407;31;33696;-79
2022/03/12 08:20:59;;;;;;;;;;;;;;;5.00;22.94;100743.56;4498570;31;35315;-80
2022/03/12 08:23:27;;;;;;;;;;;;;;;4.64;23.25;100748.25;4498326;31;35590;-80
2022/03/12 08:25:54;;;;;;;;;;;;;;;5.10;22.60;100741.63;4498320;31;33080;-79
2022/03/12 08:28:22;;;;;;;;;;;;;;;5.60;22.70;100735.09;4498208;31;33755;-82
2022/03/12 08:30:52;;;;;;;;;;;;;;;6.43;21.86;100730.38;4498260;31;34136;-79
2022/03/12 08:33:20;;;;;;;;;;;;;;;5.15;22.53;100739.34;4498375;31;35340;-80
2022/03/12 08:35:48;;;;;;;;;;;;;;;5.26;22.72;100733.16;4497613;31;33693;-77
2022/03/12 08:38:15;;;;;;;;;;;;;;;5.67;22.27;100744.09;4498660;31;33932;-79
2022/03/12 08:40:43;;;;;;;;;;;;;;;6.37;21.34;100727.47;4498560;31;34378;-82
2022/03/12 08:43:10;;;;;;;;;;;;;;;5.71;21.02;100739.19;4498541;31;34626;-80
2022/03/12 08:45:37;;;;;;;;;;;;;;;5.75;21.16;100737.69;4498455;31;33446;-80
2022/03/12 08:48:04;;;;;;;;;;;;;;;4.94;21.83;100738.06;4498515;31;33990;-79
2022/03/12 08:50:32;;;;;;;;;;;;;;;5.52;21.13;100732.09;4498825;31;35287;-79
2022/03/12 08:52:59;;;;;;;;;;;;;;;5.20;21.20;100730.22;4498378;31;35276;-79
2022/03/12 08:55:26;;;;;;;;;;;;;;;5.06;21.44;100731.97;4498820;31;33267;-80
2022/03/12 08:57:55;;;;;;;;;;;;;;;5.62;21.06;100730.97;4498303;31;34710;-80
2022/03/12 09:00:23;;;;;;;;;;;;;;;6.24;20.57;100733.62;4498407;31;34207;-80
2022/03/12 09:02:51;;;;;;;;;;;;;;;7.83;19.39;100725.53;4498489;31;34611;-78
2022/03/12 09:05:19;;;;;;;;;;;;;;;6.65;19.20;100724.69;4498471;31;33742;-79
2022/03/12 09:07:51;;;;;;;;;;;;;;;6.04;19.41;100726.50;4498127;31;34978;-79
2022/03/12 09:10:18;;;;;;;;;;;;;;;5.24;20.74;100736.44;4498072;31;34497;-79
2022/03/12 09:12:46;;;;;;;;;;;;;;;5.08;20.92;100738.09;4498624;31;34337;-78
2022/03/12 09:15:13;;;;;;;;;;;;;;;5.99;20.58;100730.50;4499344;31;33778;-80
2022/03/12 09:17:40;;;;;;;;;;;;;;;7.54;18.75;100721.53;4500478;31;33952;-80
2022/03/12 09:20:08;;;;;;;;;;;;;;;6.05;19.73;100726.56;4500203;31;34504;-78
2022/03/12 09:22:35;;;;;;;;;;;;;;;6.03;19.80;100724.72;4498754;31;34232;-80
2022/03/12 09:25:03;;;;;;;;;;;;;;;6.78;19.48;100729.69;4499725;31;33633;-80
2022/03/12 09:27:31;;;;;;;;;;;;;;;8.30;18.42;100724.34;4499796;31;34860;-79
2022/03/12 09:29:58;;;;;;;;;;;;;;;7.80;17.99;100709.88;4499591;31;33937;-80
2022/03/12 09:32:25;;;;;;;;;;;;;;;8.25;18.63;100718.94;4500022;31;35066;-80
2022/03/12 09:34:53;;;;;;;;;;;;;;;7.92;18.76;100717.38;4499896;31;33638;-80
2022/03/12 09:37:20;;;;;;;;;;;;;;;8.48;18.05;100713.97;4499639;31;33735;-80
2022/03/12 09:39:47;;;;;;;;;;;;;;;7.48;17.69;100710.91;4499733;31;33867;-79
2022/03/12 09:42:16;;;;;;;;;;;;;;;6.78;18.16;100710.75;4499113;31;34668;-80
2022/03/12 09:44:43;;;;;;;;;;;;;;;7.65;18.03;100711.72;4499934;31;33596;-79
2022/03/12 09:47:12;;;;;;;;;;;;;;;7.22;18.62;100712.16;4496015;31;34327;-80
2022/03/12 09:49:40;;;;;;;;;;;;;;;7.34;18.53;100711.91;4493512;31;34395;-79
2022/03/12 09:52:09;;;;;;;;;;;;;;;6.97;18.57;100710.00;4484216;32;34171;-79
2022/03/12 09:54:36;;;;;;;;;;;;;;;7.10;18.74;100711.53;4483940;32;34651;-81
2022/03/12 09:57:04;;;;;;;;;;;;;;;5.56;19.92;100712.59;4484161;32;35002;-80
2022/03/12 09:59:31;;;;;;;;;;;;;;;6.19;19.61;100709.31;4485775;31;34210;-81
2022/03/12 10:02:00;;;;;;;;;;;;;;;6.07;19.59;100714.69;4499379;31;35147;-80
2022/03/12 10:04:28;;;;;;;;;;;;;;;6.36;19.81;100699.03;4499093;31;33601;-81
2022/03/12 10:06:56;;;;;;;;;;;;;;;7.70;18.50;100695.66;4499096;31;34797;-81
2022/03/12 10:09:23;;;;;;;;;;;;;;;8.37;18.73;100704.81;4499109;31;35126;-82
2022/03/12 10:11:51;;;;;;;;;;;;;;;7.96;18.27;100693.44;4499536;31;35480;-80
2022/03/12 10:14:19;;;;;;;;;;;;;;;7.71;17.65;100696.53;4499783;31;34471;-79
2022/03/12 10:16:46;;;;;;;;;;;;;;;7.41;18.07;100689.06;4499755;31;35088;-80
2022/03/12 10:19:13;;;;;;;;;;;;;;;7.21;18.62;100690.66;4499417;31;34551;-78
2022/03/12 10:21:45;;;;;;;;;;;;;;;8.17;17.32;100684.09;4498605;31;33012;-81
2022/03/12 10:24:12;;;;;;;;;;;;;;;7.89;18.03;100686.22;4499590;31;34532;-81
2022/03/12 10:26:41;;;;;;;;;;;;;;;8.60;17.41;100693.88;4498809;31;35220;-81
2022/03/12 10:29:12;;;;;;;;;;;;;;;7.73;17.98;100688.06;4499917;31;35168;-81
2022/03/12 10:31:39;;;;;;;;;;;;;;;7.97;17.83;100682.31;4487167;31;33915;-81
2022/03/12 10:34:13;;;;;;;;;;;;;;;7.11;18.70;100683.25;4483828;32;32645;-80
2022/03/12 10:36:40;;;;;;;;;;;;;;;8.17;18.08;100686.69;4482610;32;33961;-82
2022/03/12 10:39:09;;;;;;;;;;;;;;;6.96;18.44;100687.63;4487776;31;34325;-80
2022/03/12 10:41:37;;;;;;;;;;;;;;;7.55;18.31;100688.06;4499736;31;33870;-81
2022/03/12 10:44:04;;;;;;;;;;;;;;;7.97;17.65;100687.47;4499592;31;34268;-82
2022/03/12 10:46:32;;;;;;;;;;;;;;;8.67;17.53;100677.78;4499762;31;34116;-80
2022/03/12 10:49:00;;;;;;;;;;;;;;;10.05;17.16;100675.81;4499403;31;35124;-81
2022/03/12 10:51:36;;;;;;;;;;;;;;;10.46;15.50;100658.38;4483499;31;34451;-80
2022/03/12 10:54:07;;;;;;;;;;;;;;;11.02;15.96;100664.69;4483604;32;33325;-80
2022/03/12 10:56:47;;;;;;;;;;;;;;;11.08;15.24;100667.53;4487077;31;34083;-80
2022/03/12 10:59:16;;;;;;;;;;;;;;;10.67;14.87;100651.38;4499001;31;35029;-80
2022/03/12 11:01:50;;;;;;;;;;;;;;;9.61;15.90;100649.00;4499554;31;34078;-80
2022/03/12 11:04:22;;;;;;;;;;;;;;;9.22;16.24;100651.75;4498238;31;33447;-80
2022/03/12 11:06:51;;;;;;;;;;;;;;;9.82;16.03;100651.59;4499127;31;34252;-79
2022/03/12 11:09:30;;;;;;;;;;;;;;;9.10;16.30;100645.19;4491874;31;34436;-81
2022/03/12 11:11:59;;;;;;;;;;;;;;;8.45;16.64;100652.72;4499345;31;35012;-80
2022/03/12 11:14:29;;;;;;;;;;;;;;;8.85;16.47;100641.53;4499494;31;34419;-80
2022/03/12 11:16:56;;;;;;;;;;;;;;;7.68;17.09;100658.53;4498757;31;34852;-79
2022/03/12 11:19:39;;;;;;;;;;;;;;;7.43;17.25;100646.16;4496535;31;34564;-80
2022/03/12 11:22:13;;;;;;;;;;;;;;;8.45;16.67;100641.50;4498502;31;33951;-81
2022/03/12 11:24:46;;;;;;;;;;;;;;;9.33;16.08;100628.03;4497943;31;33455;-80
2022/03/12 11:27:14;;;;;;;;;;;;;;;9.46;15.92;100630.28;4499694;31;33840;-80
2022/03/12 11:29:42;;;;;;;;;;;;;;;9.48;16.07;100626.94;4498646;31;35413;-80
2022/03/12 11:32:09;;;;;;;;;;;;;;;10.17;15.49;100621.84;4498031;31;35053;-80
2022/03/12 11:34:39;;;;;;;;;;;;;;;10.23;15.29;100619.50;4499213;31;34170;-80
2022/03/12 11:37:12;;;;;;;;;;;;;;;9.26;15.97;100622.59;4497821;31;34298;-80
2022/03/12 11:39:44;;;;;;;;;;;;;;;8.11;17.09;100634.75;4498286;31;33779;-80
2022/03/12 11:42:17;;;;;;;;;;;;;;;9.18;17.09;100616.22;4485382;31;34596;-80
2022/03/12 11:44:46;;;;;;;;;;;;;;;10.53;16.61;100611.13;4499048;31;33102;-80
2022/03/12 11:47:14;;;;;;;;;;;;;;;9.46;15.84;100610.44;4496929;31;34989;-81
2022/03/12 11:49:41;;;;;;;;;;;;;;;9.91;15.34;100591.47;4498836;31;34361;-82
2022/03/12 11:52:09;;;;;;;;;;;;;;;8.34;16.52;100611.69;4497827;31;35142;-81
2022/03/12 11:54:38;;;;;;;;;;;;;;;8.71;16.84;100604.75;4499364;31;33425;-82
2022/03/12 11:57:06;;;;;;;;;;;;;;;8.13;17.21;100599.53;4498629;31;33857;-81
2022/03/12 11:59:34;;;;;;;;;;;;;;;8.68;16.49;100589.09;4498923;31;35247;-81
2022/03/12 12:02:19;;;;;;;;;;;;;;;9.15;16.21;100592.78;4498995;31;34472;-81
2022/03/12 12:04:49;;;;;;;;;;;;;;;10.01;15.79;100580.66;4499108;31;33558;-81
2022/03/12 12:07:17;;;;;;;;;;;;;;;9.91;16.22;100584.59;4499084;31;34193;-81
2022/03/12 12:09:44;;;;;;;;;;;;;;;9.60;15.46;100574.75;4498666;31;35356;-81
2022/03/12 12:12:12;;;;;;;;;;;;;;;9.83;16.26;100577.34;4498955;31;34516;-81
2022/03/12 12:14:40;;;;;;;;;;;;;;;10.80;15.49;100555.84;4499116;31;34013;-82
2022/03/12 12:17:07;;;;;;;;;;;;;;;11.43;15.86;100561.38;4497475;31;34413;-82
2022/03/12 12:19:34;;;;;;;;;;;;;;;11.49;15.01;100566.75;4499147;31;34264;-81
2022/03/12 12:22:02;;;;;;;;;;;;;;;11.50;15.00;100558.13;4498881;31;35250;-81
2022/03/12 12:24:31;;;;;;;;;;;;;;;12.34;13.74;100558.03;4497412;31;33579;-82
2022/03/12 12:26:59;;;;;;;;;;;;;;;12.44;13.38;100548.78;4498926;31;34761;-82
2022/03/12 12:29:42;;;;;;;;;;;;;;;11.66;14.88;100564.66;4497414;31;34392;-82
2022/03/12 12:32:10;;;;;;;;;;;;;;;11.77;14.18;100557.22;4498732;31;34382;-82
2022/03/12 12:34:58;;;;;;;;;;;;;;;10.10;14.63;100549.88;4498451;31;33414;-82
2022/03/12 12:37:58;;;;;;;;;;;;;;;10.80;14.73;100548.06;4498702;31;32784;-82
2022/03/12 12:40:30;;;;;;;;;;;;;;;10.58;15.18;100539.53;4471750;31;34170;-82
2022/03/12 12:43:02;;;;;;;;;;;;;;;11.08;14.59;100548.13;4498657;31;35051;-82
2022/03/12 12:45:32;;;;;;;;;;;;;;;9.64;15.71;100540.38;4498382;31;33490;-81
2022/03/12 12:48:23;;;;;;;;;;;;;;;9.68;16.22;100541.38;4498047;31;34787;-82
2022/03/12 12:51:11;;;;;;;;;;;;;;;10.69;14.96;100540.78;4492221;31;33727;-83
2022/03/12 12:53:42;;;;;;;;;;;;;;;8.95;16.30;100547.12;4498483;31;34330;-81
2022/03/12 12:56:17;;;;;;;;;;;;;;;10.05;15.64;100546.25;4498324;31;33730;-82
2022/03/12 12:59:03;;;;;;;;;;;;;;;11.26;14.81;100531.41;4497221;31;34759;-81
2022/03/12 13:01:37;;;;;;;;;;;;;;;11.24;14.47;100538.25;4498208;31;33329;-82